sensor_id;sensor_type;location;lat;lon;timestamp;P1;durP1;ratioP1;P2;durP2;ratioP2
8610;SDS011;4343;53.648;10.098;2023-08-20T00:01:31;4.80;;;3.92;;
8610;SDS011;4343;53.648;10.098;2023-08-20T00:03:56;5.57;;;4.40;;
8610;SDS011;4343;53.648;10.098;2023-08-20T00:06:22;7.43;;;4.70;;
8610;SDS011;4343;53.648;10.098;2023-08-20T00:08:49;4.28;;;3.88;;
8610;SDS011;4343;53.648;10.098;2023-08-20T00:11:14;3.95;;;3.63;;
8610;SDS011;4343;53.648;10.098;2023-08-20T00:13:40;4.25;;;3.83;;
8610;SDS011;4343;53.648;10.098;2023-08-20T00:16:06;4.38;;;3.67;;
8610;SDS011;4343;53.648;10.098;2023-08-20T00:18:33;4.07;;;3.78;;
8610;SDS011;4343;53.648;10.098;2023-08-20T00:20:59;8.50;;;4.43;;
8610;SDS011;4343;53.648;10.098;2023-08-20T00:23:25;5.35;;;4.22;;
8610;SDS011;4343;53.648;10.098;2023-08-20T00:25:51;5.43;;;4.38;;
8610;SDS011;4343;53.648;10.098;2023-08-20T00:28:18;8.48;;;4.43;;
8610;SDS011;4343;53.648;10.098;2023-08-20T00:30:44;5.93;;;3.70;;
8610;SDS011;4343;53.648;10.098;2023-08-20T00:33:10;4.15;;;3.85;;
8610;SDS011;4343;53.648;10.098;2023-08-20T00:35:35;5.63;;;4.32;;
8610;SDS011;4343;53.648;10.098;2023-08-20T00:38:01;4.70;;;3.90;;
8610;SDS011;4343;53.648;10.098;2023-08-20T00:40:27;4.88;;;4.30;;
8610;SDS011;4343;53.648;10.098;2023-08-20T00:42:53;5.32;;;4.05;;
8610;SDS011;4343;53.648;10.098;2023-08-20T00:45:18;5.28;;;3.63;;
8610;SDS011;4343;53.648;10.098;2023-08-20T00:47:44;4.93;;;4.03;;
8610;SDS011;4343;53.648;10.098;2023-08-20T00:50:10;5.72;;;3.95;;
8610;SDS011;4343;53.648;10.098;2023-08-20T00:52:36;4.13;;;3.72;;
8610;SDS011;4343;53.648;10.098;2023-08-20T00:55:05;4.68;;;4.15;;
8610;SDS011;4343;53.648;10.098;2023-08-20T00:57:33;4.18;;;3.63;;
8610;SDS011;4343;53.648;10.098;2023-08-20T00:59:59;5.35;;;3.60;;
8610;SDS011;4343;53.648;10.098;2023-08-20T01:02:26;4.82;;;4.28;;
8610;SDS011;4343;53.648;10.098;2023-08-20T01:04:51;10.20;;;4.82;;
8610;SDS011;4343;53.648;10.098;2023-08-20T01:07:20;4.55;;;3.78;;
8610;SDS011;4343;53.648;10.098;2023-08-20T01:09:50;6.30;;;4.38;;
8610;SDS011;4343;53.648;10.098;2023-08-20T01:12:22;6.32;;;3.60;;
8610;SDS011;4343;53.648;10.098;2023-08-20T01:14:49;5.90;;;4.35;;
8610;SDS011;4343;53.648;10.098;2023-08-20T01:17:14;5.80;;;4.20;;
8610;SDS011;4343;53.648;10.098;2023-08-20T01:19:40;4.07;;;3.70;;
8610;SDS011;4343;53.648;10.098;2023-08-20T01:24:59;5.05;;;4.55;;
8610;SDS011;4343;53.648;10.098;2023-08-20T01:30:33;5.50;;;4.07;;
8610;SDS011;4343;53.648;10.098;2023-08-20T01:32:59;6.90;;;4.63;;
8610;SDS011;4343;53.648;10.098;2023-08-20T01:35:26;4.85;;;3.83;;
8610;SDS011;4343;53.648;10.098;2023-08-20T01:37:52;5.03;;;4.13;;
8610;SDS011;4343;53.648;10.098;2023-08-20T01:40:18;4.32;;;3.92;;
8610;SDS011;4343;53.648;10.098;2023-08-20T01:42:44;5.30;;;4.13;;
8610;SDS011;4343;53.648;10.098;2023-08-20T01:45:09;4.65;;;4.32;;
8610;SDS011;4343;53.648;10.098;2023-08-20T01:47:36;4.45;;;4.00;;
8610;SDS011;4343;53.648;10.098;2023-08-20T01:50:02;3.88;;;3.63;;
8610;SDS011;4343;53.648;10.098;2023-08-20T01:52:27;4.43;;;4.10;;
8610;SDS011;4343;53.648;10.098;2023-08-20T01:54:54;3.90;;;3.50;;
8610;SDS011;4343;53.648;10.098;2023-08-20T01:57:20;4.70;;;4.10;;
8610;SDS011;4343;53.648;10.098;2023-08-20T01:59:45;4.20;;;3.88;;
8610;SDS011;4343;53.648;10.098;2023-08-20T02:02:12;5.32;;;4.13;;
8610;SDS011;4343;53.648;10.098;2023-08-20T02:04:37;5.35;;;4.20;;
8610;SDS011;4343;53.648;10.098;2023-08-20T02:07:03;5.10;;;4.10;;
8610;SDS011;4343;53.648;10.098;2023-08-20T02:09:28;6.03;;;4.20;;
8610;SDS011;4343;53.648;10.098;2023-08-20T02:11:54;5.63;;;4.07;;
8610;SDS011;4343;53.648;10.098;2023-08-20T02:14:19;8.27;;;4.68;;
8610;SDS011;4343;53.648;10.098;2023-08-20T02:16:45;4.53;;;4.10;;
8610;SDS011;4343;53.648;10.098;2023-08-20T02:19:11;4.22;;;3.92;;
8610;SDS011;4343;53.648;10.098;2023-08-20T02:21:37;4.55;;;4.22;;
8610;SDS011;4343;53.648;10.098;2023-08-20T02:24:03;5.85;;;4.32;;
8610;SDS011;4343;53.648;10.098;2023-08-20T02:26:29;7.00;;;4.20;;
8610;SDS011;4343;53.648;10.098;2023-08-20T02:28:54;8.48;;;4.45;;
8610;SDS011;4343;53.648;10.098;2023-08-20T02:31:20;5.50;;;4.18;;
8610;SDS011;4343;53.648;10.098;2023-08-20T02:33:45;4.47;;;4.07;;
8610;SDS011;4343;53.648;10.098;2023-08-20T02:36:11;3.90;;;3.60;;
8610;SDS011;4343;53.648;10.098;2023-08-20T02:38:37;4.85;;;4.22;;
8610;SDS011;4343;53.648;10.098;2023-08-20T02:41:02;4.60;;;3.88;;
8610;SDS011;4343;53.648;10.098;2023-08-20T02:43:28;6.90;;;4.97;;
8610;SDS011;4343;53.648;10.098;2023-08-20T02:45:54;6.32;;;4.43;;
8610;SDS011;4343;53.648;10.098;2023-08-20T02:48:19;6.43;;;3.97;;
8610;SDS011;4343;53.648;10.098;2023-08-20T02:50:45;4.38;;;4.07;;
8610;SDS011;4343;53.648;10.098;2023-08-20T02:53:11;5.32;;;4.25;;
8610;SDS011;4343;53.648;10.098;2023-08-20T02:55:36;9.55;;;4.93;;
8610;SDS011;4343;53.648;10.098;2023-08-20T02:58:02;4.50;;;4.10;;
8610;SDS011;4343;53.648;10.098;2023-08-20T03:00:29;4.90;;;4.03;;
8610;SDS011;4343;53.648;10.098;2023-08-20T03:02:55;6.63;;;4.85;;
8610;SDS011;4343;53.648;10.098;2023-08-20T03:05:21;7.75;;;4.53;;
8610;SDS011;4343;53.648;10.098;2023-08-20T03:07:47;4.88;;;4.25;;
8610;SDS011;4343;53.648;10.098;2023-08-20T03:10:12;5.85;;;4.43;;
8610;SDS011;4343;53.648;10.098;2023-08-20T03:12:38;5.53;;;4.45;;
8610;SDS011;4343;53.648;10.098;2023-08-20T03:15:03;4.63;;;4.22;;
8610;SDS011;4343;53.648;10.098;2023-08-20T03:17:29;5.20;;;4.63;;
8610;SDS011;4343;53.648;10.098;2023-08-20T03:19:55;6.32;;;4.68;;
8610;SDS011;4343;53.648;10.098;2023-08-20T03:22:23;6.25;;;4.45;;
8610;SDS011;4343;53.648;10.098;2023-08-20T03:24:49;6.68;;;4.70;;
8610;SDS011;4343;53.648;10.098;2023-08-20T03:27:15;5.22;;;4.47;;
8610;SDS011;4343;53.648;10.098;2023-08-20T03:29:41;7.45;;;4.53;;
8610;SDS011;4343;53.648;10.098;2023-08-20T03:32:06;4.90;;;4.55;;
8610;SDS011;4343;53.648;10.098;2023-08-20T03:34:32;6.28;;;5.60;;
8610;SDS011;4343;53.648;10.098;2023-08-20T03:36:57;6.75;;;5.20;;
8610;SDS011;4343;53.648;10.098;2023-08-20T03:39:23;5.68;;;4.88;;
8610;SDS011;4343;53.648;10.098;2023-08-20T03:41:49;7.00;;;5.47;;
8610;SDS011;4343;53.648;10.098;2023-08-20T03:44:15;5.07;;;4.57;;
8610;SDS011;4343;53.648;10.098;2023-08-20T03:46:41;5.35;;;4.72;;
8610;SDS011;4343;53.648;10.098;2023-08-20T03:49:06;5.95;;;4.80;;
8610;SDS011;4343;53.648;10.098;2023-08-20T03:51:32;5.80;;;5.00;;
8610;SDS011;4343;53.648;10.098;2023-08-20T03:53:57;7.97;;;5.45;;
8610;SDS011;4343;53.648;10.098;2023-08-20T03:56:23;6.60;;;5.65;;
8610;SDS011;4343;53.648;10.098;2023-08-20T03:58:48;6.53;;;5.78;;
8610;SDS011;4343;53.648;10.098;2023-08-20T04:01:14;8.05;;;5.65;;
8610;SDS011;4343;53.648;10.098;2023-08-20T04:03:39;5.60;;;5.03;;
8610;SDS011;4343;53.648;10.098;2023-08-20T04:06:05;5.65;;;5.18;;
8610;SDS011;4343;53.648;10.098;2023-08-20T04:08:31;5.93;;;4.88;;
8610;SDS011;4343;53.648;10.098;2023-08-20T04:10:57;6.82;;;6.03;;
8610;SDS011;4343;53.648;10.098;2023-08-20T04:13:22;6.95;;;5.38;;
8610;SDS011;4343;53.648;10.098;2023-08-20T04:15:48;5.40;;;4.90;;
8610;SDS011;4343;53.648;10.098;2023-08-20T04:18:14;6.18;;;5.55;;
8610;SDS011;4343;53.648;10.098;2023-08-20T04:20:39;6.18;;;5.53;;
8610;SDS011;4343;53.648;10.098;2023-08-20T04:23:05;5.38;;;4.97;;
8610;SDS011;4343;53.648;10.098;2023-08-20T04:25:30;5.25;;;4.65;;
8610;SDS011;4343;53.648;10.098;2023-08-20T04:27:56;6.22;;;5.03;;
8610;SDS011;4343;53.648;10.098;2023-08-20T04:30:21;5.70;;;4.82;;
8610;SDS011;4343;53.648;10.098;2023-08-20T04:32:47;6.50;;;5.57;;
8610;SDS011;4343;53.648;10.098;2023-08-20T04:35:13;6.03;;;5.28;;
8610;SDS011;4343;53.648;10.098;2023-08-20T04:37:38;8.10;;;5.40;;
8610;SDS011;4343;53.648;10.098;2023-08-20T04:40:04;7.30;;;5.82;;
8610;SDS011;4343;53.648;10.098;2023-08-20T04:42:31;5.25;;;4.80;;
8610;SDS011;4343;53.648;10.098;2023-08-20T04:44:57;6.45;;;5.85;;
8610;SDS011;4343;53.648;10.098;2023-08-20T04:47:22;6.07;;;5.43;;
8610;SDS011;4343;53.648;10.098;2023-08-20T04:49:48;5.45;;;4.90;;
8610;SDS011;4343;53.648;10.098;2023-08-20T04:52:13;8.05;;;5.60;;
8610;SDS011;4343;53.648;10.098;2023-08-20T04:54:39;5.88;;;5.38;;
8610;SDS011;4343;53.648;10.098;2023-08-20T04:57:04;6.28;;;5.68;;
8610;SDS011;4343;53.648;10.098;2023-08-20T04:59:30;6.00;;;5.43;;
8610;SDS011;4343;53.648;10.098;2023-08-20T05:01:56;6.47;;;5.55;;
8610;SDS011;4343;53.648;10.098;2023-08-20T05:04:21;5.68;;;4.93;;
8610;SDS011;4343;53.648;10.098;2023-08-20T05:06:47;5.75;;;5.05;;
8610;SDS011;4343;53.648;10.098;2023-08-20T05:09:13;5.68;;;5.18;;
8610;SDS011;4343;53.648;10.098;2023-08-20T05:11:39;8.25;;;6.15;;
8610;SDS011;4343;53.648;10.098;2023-08-20T05:14:04;7.85;;;5.78;;
8610;SDS011;4343;53.648;10.098;2023-08-20T05:16:30;7.35;;;5.75;;
8610;SDS011;4343;53.648;10.098;2023-08-20T05:18:55;7.38;;;6.05;;
8610;SDS011;4343;53.648;10.098;2023-08-20T05:21:21;6.95;;;6.25;;
8610;SDS011;4343;53.648;10.098;2023-08-20T05:23:46;8.75;;;7.65;;
8610;SDS011;4343;53.648;10.098;2023-08-20T05:26:12;7.13;;;6.32;;
8610;SDS011;4343;53.648;10.098;2023-08-20T05:28:37;6.70;;;6.10;;
8610;SDS011;4343;53.648;10.098;2023-08-20T05:31:03;6.60;;;6.00;;
8610;SDS011;4343;53.648;10.098;2023-08-20T05:33:28;7.15;;;6.18;;
8610;SDS011;4343;53.648;10.098;2023-08-20T05:35:54;6.80;;;6.15;;
8610;SDS011;4343;53.648;10.098;2023-08-20T05:38:19;8.15;;;7.30;;
8610;SDS011;4343;53.648;10.098;2023-08-20T05:40:45;7.10;;;6.38;;
8610;SDS011;4343;53.648;10.098;2023-08-20T05:43:19;7.57;;;6.63;;
8610;SDS011;4343;53.648;10.098;2023-08-20T05:45:45;8.98;;;6.60;;
8610;SDS011;4343;53.648;10.098;2023-08-20T05:48:10;7.90;;;6.63;;
8610;SDS011;4343;53.648;10.098;2023-08-20T05:50:36;7.32;;;6.72;;
8610;SDS011;4343;53.648;10.098;2023-08-20T05:53:02;7.50;;;6.90;;
8610;SDS011;4343;53.648;10.098;2023-08-20T05:55:27;6.75;;;6.30;;
8610;SDS011;4343;53.648;10.098;2023-08-20T05:57:53;8.45;;;7.70;;
8610;SDS011;4343;53.648;10.098;2023-08-20T06:00:18;8.30;;;7.60;;
8610;SDS011;4343;53.648;10.098;2023-08-20T06:02:44;9.15;;;8.45;;
8610;SDS011;4343;53.648;10.098;2023-08-20T06:05:09;9.07;;;8.38;;
8610;SDS011;4343;53.648;10.098;2023-08-20T06:07:35;8.55;;;7.90;;
8610;SDS011;4343;53.648;10.098;2023-08-20T06:10:01;10.05;;;9.23;;
8610;SDS011;4343;53.648;10.098;2023-08-20T06:12:26;10.27;;;9.25;;
8610;SDS011;4343;53.648;10.098;2023-08-20T06:14:52;9.32;;;8.73;;
8610;SDS011;4343;53.648;10.098;2023-08-20T06:17:18;10.32;;;9.52;;
8610;SDS011;4343;53.648;10.098;2023-08-20T06:19:44;11.40;;;10.50;;
8610;SDS011;4343;53.648;10.098;2023-08-20T06:22:09;10.57;;;9.77;;
8610;SDS011;4343;53.648;10.098;2023-08-20T06:24:35;12.13;;;11.07;;
8610;SDS011;4343;53.648;10.098;2023-08-20T06:27:00;12.13;;;11.05;;
8610;SDS011;4343;53.648;10.098;2023-08-20T06:29:26;11.75;;;10.73;;
8610;SDS011;4343;53.648;10.098;2023-08-20T06:31:51;11.43;;;10.63;;
8610;SDS011;4343;53.648;10.098;2023-08-20T06:34:17;12.60;;;11.52;;
8610;SDS011;4343;53.648;10.098;2023-08-20T06:36:43;14.02;;;12.82;;
8610;SDS011;4343;53.648;10.098;2023-08-20T06:39:08;14.65;;;13.25;;
8610;SDS011;4343;53.648;10.098;2023-08-20T06:41:34;14.38;;;13.07;;
8610;SDS011;4343;53.648;10.098;2023-08-20T06:44:00;14.43;;;13.02;;
8610;SDS011;4343;53.648;10.098;2023-08-20T06:46:26;14.68;;;13.18;;
8610;SDS011;4343;53.648;10.098;2023-08-20T06:48:52;14.80;;;13.40;;
8610;SDS011;4343;53.648;10.098;2023-08-20T06:51:20;16.45;;;14.93;;
8610;SDS011;4343;53.648;10.098;2023-08-20T06:53:47;16.35;;;14.68;;
8610;SDS011;4343;53.648;10.098;2023-08-20T06:56:13;17.88;;;16.10;;
8610;SDS011;4343;53.648;10.098;2023-08-20T06:58:39;18.23;;;16.30;;
8610;SDS011;4343;53.648;10.098;2023-08-20T07:01:06;20.60;;;18.50;;
8610;SDS011;4343;53.648;10.098;2023-08-20T07:03:35;24.52;;;20.80;;
8610;SDS011;4343;53.648;10.098;2023-08-20T07:06:05;27.65;;;22.27;;
8610;SDS011;4343;53.648;10.098;2023-08-20T07:08:31;22.33;;;20.02;;
8610;SDS011;4343;53.648;10.098;2023-08-20T07:10:56;26.95;;;22.77;;
8610;SDS011;4343;53.648;10.098;2023-08-20T07:13:23;24.40;;;21.83;;
8610;SDS011;4343;53.648;10.098;2023-08-20T07:15:49;21.65;;;19.27;;
8610;SDS011;4343;53.648;10.098;2023-08-20T07:18:14;22.92;;;20.52;;
8610;SDS011;4343;53.648;10.098;2023-08-20T07:20:43;23.30;;;20.13;;
8610;SDS011;4343;53.648;10.098;2023-08-20T07:23:10;24.70;;;20.58;;
8610;SDS011;4343;53.648;10.098;2023-08-20T07:25:36;19.83;;;17.85;;
8610;SDS011;4343;53.648;10.098;2023-08-20T07:28:04;20.70;;;17.55;;
8610;SDS011;4343;53.648;10.098;2023-08-20T07:30:30;19.98;;;17.98;;
8610;SDS011;4343;53.648;10.098;2023-08-20T07:32:56;19.48;;;16.42;;
8610;SDS011;4343;53.648;10.098;2023-08-20T07:35:22;20.48;;;18.27;;
8610;SDS011;4343;53.648;10.098;2023-08-20T07:45:08;19.38;;;16.52;;
8610;SDS011;4343;53.648;10.098;2023-08-20T07:47:38;18.23;;;16.27;;
8610;SDS011;4343;53.648;10.098;2023-08-20T07:50:04;16.27;;;14.77;;
8610;SDS011;4343;53.648;10.098;2023-08-20T07:52:34;16.52;;;14.82;;
8610;SDS011;4343;53.648;10.098;2023-08-20T07:54:59;15.60;;;13.73;;
8610;SDS011;4343;53.648;10.098;2023-08-20T07:57:25;16.08;;;13.18;;
8610;SDS011;4343;53.648;10.098;2023-08-20T07:59:50;13.50;;;12.20;;
8610;SDS011;4343;53.648;10.098;2023-08-20T08:02:16;14.55;;;12.98;;
8610;SDS011;4343;53.648;10.098;2023-08-20T08:04:42;13.45;;;12.05;;
8610;SDS011;4343;53.648;10.098;2023-08-20T08:07:08;13.55;;;12.20;;
8610;SDS011;4343;53.648;10.098;2023-08-20T08:09:35;14.50;;;13.00;;
8610;SDS011;4343;53.648;10.098;2023-08-20T08:12:01;11.90;;;10.70;;
8610;SDS011;4343;53.648;10.098;2023-08-20T08:14:27;13.77;;;12.38;;
8610;SDS011;4343;53.648;10.098;2023-08-20T08:16:53;16.48;;;12.90;;
8610;SDS011;4343;53.648;10.098;2023-08-20T08:19:19;18.02;;;13.88;;
8610;SDS011;4343;53.648;10.098;2023-08-20T08:21:45;12.90;;;11.60;;
8610;SDS011;4343;53.648;10.098;2023-08-20T08:24:12;13.85;;;11.88;;
8610;SDS011;4343;53.648;10.098;2023-08-20T08:26:38;14.35;;;12.82;;
8610;SDS011;4343;53.648;10.098;2023-08-20T08:33:55;9.70;;;8.65;;
8610;SDS011;4343;53.648;10.098;2023-08-20T08:36:21;9.32;;;8.48;;
8610;SDS011;4343;53.648;10.098;2023-08-20T08:38:46;7.30;;;6.60;;
8610;SDS011;4343;53.648;10.098;2023-08-20T08:41:13;5.40;;;5.00;;
8610;SDS011;4343;53.648;10.098;2023-08-20T08:43:40;5.18;;;4.68;;
8610;SDS011;4343;53.648;10.098;2023-08-20T08:46:06;8.00;;;3.20;;
8610;SDS011;4343;53.648;10.098;2023-08-20T08:48:36;3.05;;;2.47;;
8610;SDS011;4343;53.648;10.098;2023-08-20T08:51:04;2.53;;;2.33;;
8610;SDS011;4343;53.648;10.098;2023-08-20T08:53:30;2.80;;;2.30;;
8610;SDS011;4343;53.648;10.098;2023-08-20T08:55:57;2.97;;;2.25;;
8610;SDS011;4343;53.648;10.098;2023-08-20T08:58:22;2.10;;;2.00;;
8610;SDS011;4343;53.648;10.098;2023-08-20T09:00:48;2.67;;;2.42;;
8610;SDS011;4343;53.648;10.098;2023-08-20T09:03:14;2.55;;;2.35;;
8610;SDS011;4343;53.648;10.098;2023-08-20T09:05:47;3.75;;;2.60;;
8610;SDS011;4343;53.648;10.098;2023-08-20T09:08:20;2.88;;;2.20;;
8610;SDS011;4343;53.648;10.098;2023-08-20T09:10:49;2.60;;;2.30;;
8610;SDS011;4343;53.648;10.098;2023-08-20T09:13:16;2.80;;;2.50;;
8610;SDS011;4343;53.648;10.098;2023-08-20T09:15:42;4.00;;;2.95;;
8610;SDS011;4343;53.648;10.098;2023-08-20T09:18:10;3.33;;;3.03;;
8610;SDS011;4343;53.648;10.098;2023-08-20T09:20:36;2.72;;;2.53;;
8610;SDS011;4343;53.648;10.098;2023-08-20T09:23:02;3.05;;;2.42;;
8610;SDS011;4343;53.648;10.098;2023-08-20T09:25:29;2.90;;;2.63;;
8610;SDS011;4343;53.648;10.098;2023-08-20T09:27:54;3.83;;;2.90;;
8610;SDS011;4343;53.648;10.098;2023-08-20T09:30:20;3.03;;;2.83;;
8610;SDS011;4343;53.648;10.098;2023-08-20T09:32:45;3.17;;;2.88;;
8610;SDS011;4343;53.648;10.098;2023-08-20T09:35:27;3.95;;;2.97;;
8610;SDS011;4343;53.648;10.098;2023-08-20T09:37:53;3.22;;;2.47;;
8610;SDS011;4343;53.648;10.098;2023-08-20T09:40:28;2.80;;;2.55;;
8610;SDS011;4343;53.648;10.098;2023-08-20T09:42:54;3.75;;;2.90;;
8610;SDS011;4343;53.648;10.098;2023-08-20T09:45:21;3.70;;;2.88;;
8610;SDS011;4343;53.648;10.098;2023-08-20T09:47:54;3.60;;;2.88;;
8610;SDS011;4343;53.648;10.098;2023-08-20T09:50:21;9.50;;;3.08;;
8610;SDS011;4343;53.648;10.098;2023-08-20T09:53:04;2.90;;;2.50;;
8610;SDS011;4343;53.648;10.098;2023-08-20T09:55:36;3.97;;;2.80;;
8610;SDS011;4343;53.648;10.098;2023-08-20T09:58:04;3.10;;;2.70;;
8610;SDS011;4343;53.648;10.098;2023-08-20T10:00:31;2.90;;;2.35;;
8610;SDS011;4343;53.648;10.098;2023-08-20T10:02:57;4.72;;;2.88;;
8610;SDS011;4343;53.648;10.098;2023-08-20T10:05:24;3.55;;;2.88;;
8610;SDS011;4343;53.648;10.098;2023-08-20T10:07:50;2.63;;;2.35;;
8610;SDS011;4343;53.648;10.098;2023-08-20T10:10:16;2.30;;;2.10;;
8610;SDS011;4343;53.648;10.098;2023-08-20T10:12:42;2.85;;;2.20;;
8610;SDS011;4343;53.648;10.098;2023-08-20T10:15:10;2.90;;;2.28;;
8610;SDS011;4343;53.648;10.098;2023-08-20T10:17:40;2.47;;;2.10;;
8610;SDS011;4343;53.648;10.098;2023-08-20T10:20:07;3.00;;;2.22;;
8610;SDS011;4343;53.648;10.098;2023-08-20T10:22:39;4.63;;;2.38;;
8610;SDS011;4343;53.648;10.098;2023-08-20T10:25:16;2.63;;;2.42;;
8610;SDS011;4343;53.648;10.098;2023-08-20T10:27:48;2.60;;;2.40;;
8610;SDS011;4343;53.648;10.098;2023-08-20T10:30:17;2.47;;;2.20;;
8610;SDS011;4343;53.648;10.098;2023-08-20T10:32:55;4.18;;;2.33;;
8610;SDS011;4343;53.648;10.098;2023-08-20T10:35:23;2.78;;;2.25;;
8610;SDS011;4343;53.648;10.098;2023-08-20T10:38:01;2.97;;;2.33;;
8610;SDS011;4343;53.648;10.098;2023-08-20T11:18:17;3.77;;;2.80;;
8610;SDS011;4343;53.648;10.098;2023-08-20T11:25:40;3.50;;;2.50;;
8610;SDS011;4343;53.648;10.098;2023-08-20T11:28:07;4.93;;;2.53;;
8610;SDS011;4343;53.648;10.098;2023-08-20T11:30:32;4.50;;;2.33;;
8610;SDS011;4343;53.648;10.098;2023-08-20T11:32:58;2.50;;;2.30;;
8610;SDS011;4343;53.648;10.098;2023-08-20T11:35:24;4.20;;;2.28;;
8610;SDS011;4343;53.648;10.098;2023-08-20T11:37:51;3.92;;;2.22;;
8610;SDS011;4343;53.648;10.098;2023-08-20T11:40:19;3.60;;;2.70;;
8610;SDS011;4343;53.648;10.098;2023-08-20T11:52:32;2.58;;;2.17;;
8610;SDS011;4343;53.648;10.098;2023-08-20T11:54:59;4.45;;;2.60;;
8610;SDS011;4343;53.648;10.098;2023-08-20T11:57:29;4.57;;;2.70;;
8610;SDS011;4343;53.648;10.098;2023-08-20T11:59:55;3.58;;;2.83;;
8610;SDS011;4343;53.648;10.098;2023-08-20T12:02:29;4.90;;;3.00;;
8610;SDS011;4343;53.648;10.098;2023-08-20T12:04:57;4.50;;;2.83;;
8610;SDS011;4343;53.648;10.098;2023-08-20T12:07:27;3.15;;;2.80;;
8610;SDS011;4343;53.648;10.098;2023-08-20T12:09:53;4.53;;;2.90;;
8610;SDS011;4343;53.648;10.098;2023-08-20T12:12:19;4.93;;;2.88;;
8610;SDS011;4343;53.648;10.098;2023-08-20T12:14:45;3.47;;;2.73;;
8610;SDS011;4343;53.648;10.098;2023-08-20T12:17:11;3.43;;;2.70;;
8610;SDS011;4343;53.648;10.098;2023-08-20T12:19:36;3.30;;;2.83;;
8610;SDS011;4343;53.648;10.098;2023-08-20T12:22:02;5.53;;;3.00;;
8610;SDS011;4343;53.648;10.098;2023-08-20T12:24:28;6.13;;;3.00;;
8610;SDS011;4343;53.648;10.098;2023-08-20T12:31:45;2.88;;;2.10;;
8610;SDS011;4343;53.648;10.098;2023-08-20T12:34:10;6.53;;;2.67;;
8610;SDS011;4343;53.648;10.098;2023-08-20T12:36:36;3.22;;;2.30;;
8610;SDS011;4343;53.648;10.098;2023-08-20T12:39:02;3.95;;;2.40;;
8610;SDS011;4343;53.648;10.098;2023-08-20T12:41:29;4.95;;;3.20;;
8610;SDS011;4343;53.648;10.098;2023-08-20T12:43:56;5.28;;;2.90;;
8610;SDS011;4343;53.648;10.098;2023-08-20T12:46:22;5.33;;;3.03;;
8610;SDS011;4343;53.648;10.098;2023-08-20T12:48:47;7.93;;;3.33;;
8610;SDS011;4343;53.648;10.098;2023-08-20T15:26:50;1.80;;;1.70;;
8610;SDS011;4343;53.648;10.098;2023-08-20T15:29:15;2.50;;;1.80;;
8610;SDS011;4343;53.648;10.098;2023-08-20T15:31:41;1.67;;;1.58;;
8610;SDS011;4343;53.648;10.098;2023-08-20T15:34:06;1.58;;;1.48;;
8610;SDS011;4343;53.648;10.098;2023-08-20T15:36:32;1.65;;;1.55;;
8610;SDS011;4343;53.648;10.098;2023-08-20T15:38:57;2.92;;;1.45;;
8610;SDS011;4343;53.648;10.098;2023-08-20T15:41:23;2.00;;;1.90;;
8610;SDS011;4343;53.648;10.098;2023-08-20T15:43:49;3.25;;;1.92;;
8610;SDS011;4343;53.648;10.098;2023-08-20T15:46:14;2.05;;;1.95;;
8610;SDS011;4343;53.648;10.098;2023-08-20T15:48:40;5.45;;;1.98;;
8610;SDS011;4343;53.648;10.098;2023-08-20T15:51:05;2.80;;;1.80;;
8610;SDS011;4343;53.648;10.098;2023-08-20T15:53:32;3.15;;;1.63;;
8610;SDS011;4343;53.648;10.098;2023-08-20T15:55:57;3.33;;;1.77;;
8610;SDS011;4343;53.648;10.098;2023-08-20T15:58:23;1.55;;;1.55;;
8610;SDS011;4343;53.648;10.098;2023-08-20T16:00:48;3.10;;;1.75;;
8610;SDS011;4343;53.648;10.098;2023-08-20T16:03:14;3.85;;;1.77;;
8610;SDS011;4343;53.648;10.098;2023-08-20T16:05:39;1.58;;;1.48;;
8610;SDS011;4343;53.648;10.098;2023-08-20T16:08:06;3.63;;;1.73;;
8610;SDS011;4343;53.648;10.098;2023-08-20T16:10:32;2.30;;;1.67;;
8610;SDS011;4343;53.648;10.098;2023-08-20T16:12:58;3.53;;;1.73;;
8610;SDS011;4343;53.648;10.098;2023-08-20T16:15:23;3.13;;;1.92;;
8610;SDS011;4343;53.648;10.098;2023-08-20T16:17:49;4.35;;;3.90;;
8610;SDS011;4343;53.648;10.098;2023-08-20T16:20:14;3.50;;;3.20;;
8610;SDS011;4343;53.648;10.098;2023-08-20T16:22:40;3.00;;;2.80;;
8610;SDS011;4343;53.648;10.098;2023-08-20T16:25:06;3.33;;;2.17;;
8610;SDS011;4343;53.648;10.098;2023-08-20T16:27:32;3.35;;;2.17;;
8610;SDS011;4343;53.648;10.098;2023-08-20T16:29:57;1.83;;;1.73;;
8610;SDS011;4343;53.648;10.098;2023-08-20T16:32:23;2.03;;;1.88;;
8610;SDS011;4343;53.648;10.098;2023-08-20T16:34:49;2.45;;;2.22;;
8610;SDS011;4343;53.648;10.098;2023-08-20T16:37:15;2.72;;;1.85;;
8610;SDS011;4343;53.648;10.098;2023-08-20T16:39:40;1.75;;;1.65;;
8610;SDS011;4343;53.648;10.098;2023-08-20T16:42:09;2.03;;;1.58;;
8610;SDS011;4343;53.648;10.098;2023-08-20T16:44:35;3.22;;;1.52;;
8610;SDS011;4343;53.648;10.098;2023-08-20T16:47:00;2.17;;;1.98;;
8610;SDS011;4343;53.648;10.098;2023-08-20T16:49:26;1.60;;;1.50;;
8610;SDS011;4343;53.648;10.098;2023-08-20T16:51:51;3.33;;;1.98;;
8610;SDS011;4343;53.648;10.098;2023-08-20T16:54:17;2.05;;;1.70;;
8610;SDS011;4343;53.648;10.098;2023-08-20T16:56:42;2.08;;;1.77;;
8610;SDS011;4343;53.648;10.098;2023-08-20T16:59:08;1.80;;;1.70;;
8610;SDS011;4343;53.648;10.098;2023-08-20T17:01:34;1.70;;;1.60;;
8610;SDS011;4343;53.648;10.098;2023-08-20T17:04:02;1.60;;;1.50;;
8610;SDS011;4343;53.648;10.098;2023-08-20T17:06:28;6.00;;;1.90;;
8610;SDS011;4343;53.648;10.098;2023-08-20T17:08:53;1.98;;;1.80;;
8610;SDS011;4343;53.648;10.098;2023-08-20T17:11:19;1.63;;;1.52;;
8610;SDS011;4343;53.648;10.098;2023-08-20T17:13:44;2.67;;;1.83;;
8610;SDS011;4343;53.648;10.098;2023-08-20T17:16:10;1.85;;;1.73;;
8610;SDS011;4343;53.648;10.098;2023-08-20T17:18:36;2.05;;;1.85;;
8610;SDS011;4343;53.648;10.098;2023-08-20T17:21:01;2.28;;;2.08;;
8610;SDS011;4343;53.648;10.098;2023-08-20T17:23:29;1.52;;;1.42;;
8610;SDS011;4343;53.648;10.098;2023-08-20T17:25:55;1.60;;;1.60;;
8610;SDS011;4343;53.648;10.098;2023-08-20T17:28:21;1.98;;;1.88;;
8610;SDS011;4343;53.648;10.098;2023-08-20T17:30:47;1.60;;;1.50;;
8610;SDS011;4343;53.648;10.098;2023-08-20T17:33:13;1.83;;;1.73;;
8610;SDS011;4343;53.648;10.098;2023-08-20T17:35:44;1.48;;;1.38;;
8610;SDS011;4343;53.648;10.098;2023-08-20T17:38:10;1.65;;;1.55;;
8610;SDS011;4343;53.648;10.098;2023-08-20T17:40:36;1.70;;;1.52;;
8610;SDS011;4343;53.648;10.098;2023-08-20T17:43:02;1.50;;;1.48;;
8610;SDS011;4343;53.648;10.098;2023-08-20T17:45:28;2.30;;;1.88;;
8610;SDS011;4343;53.648;10.098;2023-08-20T17:47:54;3.42;;;2.03;;
8610;SDS011;4343;53.648;10.098;2023-08-20T17:50:19;2.15;;;1.98;;
8610;SDS011;4343;53.648;10.098;2023-08-20T17:52:45;1.80;;;1.70;;
8610;SDS011;4343;53.648;10.098;2023-08-20T17:55:11;2.05;;;1.90;;
8610;SDS011;4343;53.648;10.098;2023-08-20T17:57:37;2.22;;;1.88;;
8610;SDS011;4343;53.648;10.098;2023-08-20T18:00:03;2.20;;;1.80;;
8610;SDS011;4343;53.648;10.098;2023-08-20T18:02:33;1.70;;;1.60;;
8610;SDS011;4343;53.648;10.098;2023-08-20T18:04:58;5.72;;;1.98;;
8610;SDS011;4343;53.648;10.098;2023-08-20T18:07:24;1.65;;;1.40;;
8610;SDS011;4343;53.648;10.098;2023-08-20T18:09:50;2.92;;;1.70;;
8610;SDS011;4343;53.648;10.098;2023-08-20T18:12:15;3.03;;;1.92;;
8610;SDS011;4343;53.648;10.098;2023-08-20T18:14:41;4.53;;;1.85;;
8610;SDS011;4343;53.648;10.098;2023-08-20T18:17:06;3.03;;;1.70;;
8610;SDS011;4343;53.648;10.098;2023-08-20T18:19:32;1.60;;;1.50;;
8610;SDS011;4343;53.648;10.098;2023-08-20T18:21:57;4.20;;;2.20;;
8610;SDS011;4343;53.648;10.098;2023-08-20T19:10:35;2.80;;;1.75;;
8610;SDS011;4343;53.648;10.098;2023-08-20T19:13:01;3.73;;;2.10;;
8610;SDS011;4343;53.648;10.098;2023-08-20T19:15:27;3.03;;;1.70;;
8610;SDS011;4343;53.648;10.098;2023-08-20T19:17:52;1.83;;;1.73;;
8610;SDS011;4343;53.648;10.098;2023-08-20T19:20:18;2.00;;;1.88;;
8610;SDS011;4343;53.648;10.098;2023-08-20T19:22:43;2.45;;;1.50;;
8610;SDS011;4343;53.648;10.098;2023-08-20T19:25:09;1.90;;;1.75;;
8610;SDS011;4343;53.648;10.098;2023-08-20T19:27:35;2.40;;;2.03;;
8610;SDS011;4343;53.648;10.098;2023-08-20T19:30:00;1.80;;;1.70;;